sensor_id;sensor_type;location;lat;lon;timestamp;P1;durP1;ratioP1;P2;durP2;ratioP2
51475;SDS011;37554;50.362;7.568;2023-05-20T00:02:03;1.20;;;1.08;;
51475;SDS011;37554;50.362;7.568;2023-05-20T00:04:29;1.33;;;0.90;;
51475;SDS011;37554;50.362;7.568;2023-05-20T00:06:55;1.27;;;0.80;;
51475;SDS011;37554;50.362;7.568;2023-05-20T00:09:21;1.40;;;1.05;;
51475;SDS011;37554;50.362;7.568;2023-05-20T00:11:46;1.20;;;1.08;;
51475;SDS011;37554;50.362;7.568;2023-05-20T00:14:12;1.30;;;1.20;;
51475;SDS011;37554;50.362;7.568;2023-05-20T00:16:38;1.38;;;1.05;;
51475;SDS011;37554;50.362;7.568;2023-05-20T00:19:03;2.38;;;0.82;;
51475;SDS011;37554;50.362;7.568;2023-05-20T00:21:29;1.52;;;1.00;;
51475;SDS011;37554;50.362;7.568;2023-05-20T00:23:55;1.23;;;0.90;;
51475;SDS011;37554;50.362;7.568;2023-05-20T00:26:20;1.35;;;1.00;;
51475;SDS011;37554;50.362;7.568;2023-05-20T00:28:46;1.10;;;1.00;;
51475;SDS011;37554;50.362;7.568;2023-05-20T00:31:12;1.25;;;0.95;;
51475;SDS011;37554;50.362;7.568;2023-05-20T00:33:38;0.98;;;0.88;;
51475;SDS011;37554;50.362;7.568;2023-05-20T00:36:03;1.45;;;1.00;;
51475;SDS011;37554;50.362;7.568;2023-05-20T00:38:29;1.35;;;0.93;;
51475;SDS011;37554;50.362;7.568;2023-05-20T00:40:55;1.58;;;1.05;;
51475;SDS011;37554;50.362;7.568;2023-05-20T00:43:21;1.35;;;1.20;;
51475;SDS011;37554;50.362;7.568;2023-05-20T00:45:49;1.10;;;0.80;;
51475;SDS011;37554;50.362;7.568;2023-05-20T00:48:15;1.50;;;1.10;;
51475;SDS011;37554;50.362;7.568;2023-05-20T00:50:41;2.13;;;1.00;;
51475;SDS011;37554;50.362;7.568;2023-05-20T00:53:07;2.25;;;1.00;;
51475;SDS011;37554;50.362;7.568;2023-05-20T00:55:34;1.00;;;0.90;;
51475;SDS011;37554;50.362;7.568;2023-05-20T00:57:59;1.00;;;0.70;;
51475;SDS011;37554;50.362;7.568;2023-05-20T01:00:25;1.13;;;1.00;;
51475;SDS011;37554;50.362;7.568;2023-05-20T01:02:51;1.13;;;0.82;;
51475;SDS011;37554;50.362;7.568;2023-05-20T01:05:19;1.55;;;1.00;;
51475;SDS011;37554;50.362;7.568;2023-05-20T01:07:44;1.92;;;1.20;;
51475;SDS011;37554;50.362;7.568;2023-05-20T01:10:10;1.30;;;0.95;;
51475;SDS011;37554;50.362;7.568;2023-05-20T01:12:41;2.38;;;1.00;;
51475;SDS011;37554;50.362;7.568;2023-05-20T01:15:12;1.15;;;1.00;;
51475;SDS011;37554;50.362;7.568;2023-05-20T01:17:42;2.70;;;1.10;;
51475;SDS011;37554;50.362;7.568;2023-05-20T01:20:10;2.60;;;0.88;;
51475;SDS011;37554;50.362;7.568;2023-05-20T01:22:38;1.35;;;1.10;;
51475;SDS011;37554;50.362;7.568;2023-05-20T01:25:11;2.10;;;1.17;;
51475;SDS011;37554;50.362;7.568;2023-05-20T01:27:37;1.15;;;1.00;;
51475;SDS011;37554;50.362;7.568;2023-05-20T01:30:02;1.30;;;0.73;;
51475;SDS011;37554;50.362;7.568;2023-05-20T01:32:33;1.17;;;0.98;;
51475;SDS011;37554;50.362;7.568;2023-05-20T01:35:03;1.40;;;1.00;;
51475;SDS011;37554;50.362;7.568;2023-05-20T01:37:29;1.25;;;1.05;;
51475;SDS011;37554;50.362;7.568;2023-05-20T01:39:56;2.85;;;0.90;;
51475;SDS011;37554;50.362;7.568;2023-05-20T01:42:23;1.80;;;1.10;;
51475;SDS011;37554;50.362;7.568;2023-05-20T01:44:51;1.20;;;1.10;;
51475;SDS011;37554;50.362;7.568;2023-05-20T01:47:16;1.13;;;0.82;;
51475;SDS011;37554;50.362;7.568;2023-05-20T01:49:42;2.15;;;1.00;;
51475;SDS011;37554;50.362;7.568;2023-05-20T01:52:10;2.72;;;1.25;;
51475;SDS011;37554;50.362;7.568;2023-05-20T01:54:36;0.98;;;0.88;;
51475;SDS011;37554;50.362;7.568;2023-05-20T01:57:01;0.90;;;0.90;;
51475;SDS011;37554;50.362;7.568;2023-05-20T01:59:27;1.67;;;1.02;;
51475;SDS011;37554;50.362;7.568;2023-05-20T02:01:53;2.55;;;1.00;;
51475;SDS011;37554;50.362;7.568;2023-05-20T02:04:18;1.40;;;1.02;;
51475;SDS011;37554;50.362;7.568;2023-05-20T02:06:46;1.42;;;0.98;;
51475;SDS011;37554;50.362;7.568;2023-05-20T02:09:12;1.88;;;0.90;;
51475;SDS011;37554;50.362;7.568;2023-05-20T02:11:38;1.15;;;0.90;;
51475;SDS011;37554;50.362;7.568;2023-05-20T02:14:04;2.13;;;1.02;;
51475;SDS011;37554;50.362;7.568;2023-05-20T02:16:29;2.35;;;1.23;;
51475;SDS011;37554;50.362;7.568;2023-05-20T02:18:55;1.25;;;1.10;;
51475;SDS011;37554;50.362;7.568;2023-05-20T02:21:22;1.38;;;0.98;;
51475;SDS011;37554;50.362;7.568;2023-05-20T02:23:48;2.33;;;0.98;;
51475;SDS011;37554;50.362;7.568;2023-05-20T02:26:13;1.15;;;0.90;;
51475;SDS011;37554;50.362;7.568;2023-05-20T02:28:40;2.72;;;1.40;;
51475;SDS011;37554;50.362;7.568;2023-05-20T02:31:10;1.30;;;1.02;;
51475;SDS011;37554;50.362;7.568;2023-05-20T02:33:36;1.30;;;1.00;;
51475;SDS011;37554;50.362;7.568;2023-05-20T02:36:02;1.98;;;1.00;;
51475;SDS011;37554;50.362;7.568;2023-05-20T02:38:28;1.40;;;1.00;;
51475;SDS011;37554;50.362;7.568;2023-05-20T02:40:55;1.55;;;1.00;;
51475;SDS011;37554;50.362;7.568;2023-05-20T02:43:22;1.83;;;1.02;;
51475;SDS011;37554;50.362;7.568;2023-05-20T02:45:48;1.70;;;0.90;;
51475;SDS011;37554;50.362;7.568;2023-05-20T02:48:14;2.80;;;1.08;;
51475;SDS011;37554;50.362;7.568;2023-05-20T02:50:40;1.38;;;0.95;;
51475;SDS011;37554;50.362;7.568;2023-05-20T02:53:05;1.52;;;1.05;;
51475;SDS011;37554;50.362;7.568;2023-05-20T02:55:34;1.48;;;0.90;;
51475;SDS011;37554;50.362;7.568;2023-05-20T02:58:00;1.90;;;1.00;;
51475;SDS011;37554;50.362;7.568;2023-05-20T03:00:26;1.10;;;1.00;;
51475;SDS011;37554;50.362;7.568;2023-05-20T03:02:54;1.00;;;0.90;;
51475;SDS011;37554;50.362;7.568;2023-05-20T03:05:20;1.45;;;0.85;;
51475;SDS011;37554;50.362;7.568;2023-05-20T03:07:46;1.45;;;0.90;;
51475;SDS011;37554;50.362;7.568;2023-05-20T03:10:12;1.25;;;1.15;;
51475;SDS011;37554;50.362;7.568;2023-05-20T03:12:38;0.93;;;0.82;;
51475;SDS011;37554;50.362;7.568;2023-05-20T03:15:04;1.23;;;0.80;;
51475;SDS011;37554;50.362;7.568;2023-05-20T03:17:30;1.27;;;0.80;;
51475;SDS011;37554;50.362;7.568;2023-05-20T03:19:56;0.80;;;0.80;;
51475;SDS011;37554;50.362;7.568;2023-05-20T03:22:21;1.17;;;0.88;;
51475;SDS011;37554;50.362;7.568;2023-05-20T03:24:47;1.65;;;1.00;;
51475;SDS011;37554;50.362;7.568;2023-05-20T03:27:13;0.90;;;0.73;;
51475;SDS011;37554;50.362;7.568;2023-05-20T03:29:38;1.13;;;0.90;;
51475;SDS011;37554;50.362;7.568;2023-05-20T03:32:04;1.10;;;0.98;;
51475;SDS011;37554;50.362;7.568;2023-05-20T03:34:30;0.80;;;0.80;;
51475;SDS011;37554;50.362;7.568;2023-05-20T03:36:56;0.80;;;0.80;;
51475;SDS011;37554;50.362;7.568;2023-05-20T03:39:21;1.88;;;1.25;;
51475;SDS011;37554;50.362;7.568;2023-05-20T03:41:47;1.17;;;0.82;;
51475;SDS011;37554;50.362;7.568;2023-05-20T03:44:12;4.03;;;1.15;;
51475;SDS011;37554;50.362;7.568;2023-05-20T03:46:38;1.20;;;0.88;;
51475;SDS011;37554;50.362;7.568;2023-05-20T03:49:04;1.10;;;0.60;;
51475;SDS011;37554;50.362;7.568;2023-05-20T03:51:30;1.10;;;0.80;;
51475;SDS011;37554;50.362;7.568;2023-05-20T03:53:55;1.35;;;1.08;;
51475;SDS011;37554;50.362;7.568;2023-05-20T03:56:21;1.65;;;1.00;;
51475;SDS011;37554;50.362;7.568;2023-05-20T03:58:47;1.45;;;0.88;;
51475;SDS011;37554;50.362;7.568;2023-05-20T04:01:12;2.35;;;0.90;;
51475;SDS011;37554;50.362;7.568;2023-05-20T04:03:38;1.17;;;0.90;;
51475;SDS011;37554;50.362;7.568;2023-05-20T04:06:05;1.00;;;0.90;;
51475;SDS011;37554;50.362;7.568;2023-05-20T04:08:31;1.52;;;0.98;;
51475;SDS011;37554;50.362;7.568;2023-05-20T04:10:57;1.08;;;0.98;;
51475;SDS011;37554;50.362;7.568;2023-05-20T04:13:26;0.82;;;0.82;;
51475;SDS011;37554;50.362;7.568;2023-05-20T04:15:52;1.60;;;1.17;;
51475;SDS011;37554;50.362;7.568;2023-05-20T04:18:17;0.73;;;0.73;;
51475;SDS011;37554;50.362;7.568;2023-05-20T04:20:44;1.10;;;0.95;;
51475;SDS011;37554;50.362;7.568;2023-05-20T04:23:10;1.75;;;1.17;;
51475;SDS011;37554;50.362;7.568;2023-05-20T04:25:36;1.83;;;0.90;;
51475;SDS011;37554;50.362;7.568;2023-05-20T04:28:02;1.67;;;1.20;;
51475;SDS011;37554;50.362;7.568;2023-05-20T04:30:28;1.30;;;0.90;;
51475;SDS011;37554;50.362;7.568;2023-05-20T04:32:57;1.10;;;0.93;;
51475;SDS011;37554;50.362;7.568;2023-05-20T04:35:23;1.92;;;1.20;;
51475;SDS011;37554;50.362;7.568;2023-05-20T04:37:49;1.27;;;1.10;;
51475;SDS011;37554;50.362;7.568;2023-05-20T04:40:18;1.60;;;1.20;;
51475;SDS011;37554;50.362;7.568;2023-05-20T04:42:43;2.22;;;1.10;;
51475;SDS011;37554;50.362;7.568;2023-05-20T04:45:09;1.70;;;1.02;;
51475;SDS011;37554;50.362;7.568;2023-05-20T04:47:36;2.35;;;1.10;;
51475;SDS011;37554;50.362;7.568;2023-05-20T04:50:06;2.30;;;1.00;;
51475;SDS011;37554;50.362;7.568;2023-05-20T04:52:35;1.38;;;0.90;;
51475;SDS011;37554;50.362;7.568;2023-05-20T04:55:03;2.13;;;0.90;;
51475;SDS011;37554;50.362;7.568;2023-05-20T04:57:34;1.20;;;1.10;;
51475;SDS011;37554;50.362;7.568;2023-05-20T05:00:00;1.52;;;1.05;;
51475;SDS011;37554;50.362;7.568;2023-05-20T05:02:26;1.52;;;1.10;;
51475;SDS011;37554;50.362;7.568;2023-05-20T05:04:52;1.48;;;0.90;;
51475;SDS011;37554;50.362;7.568;2023-05-20T05:07:17;1.45;;;1.00;;
51475;SDS011;37554;50.362;7.568;2023-05-20T05:09:43;2.10;;;1.13;;
51475;SDS011;37554;50.362;7.568;2023-05-20T05:12:09;1.23;;;0.93;;
51475;SDS011;37554;50.362;7.568;2023-05-20T05:14:34;1.50;;;1.02;;
51475;SDS011;37554;50.362;7.568;2023-05-20T05:17:00;1.42;;;1.00;;
51475;SDS011;37554;50.362;7.568;2023-05-20T05:19:25;1.30;;;1.00;;
51475;SDS011;37554;50.362;7.568;2023-05-20T05:21:51;1.27;;;1.00;;
51475;SDS011;37554;50.362;7.568;2023-05-20T05:24:17;1.88;;;1.05;;
51475;SDS011;37554;50.362;7.568;2023-05-20T05:26:42;1.77;;;1.15;;
51475;SDS011;37554;50.362;7.568;2023-05-20T05:29:08;2.38;;;1.10;;
51475;SDS011;37554;50.362;7.568;2023-05-20T05:31:33;1.08;;;0.95;;
51475;SDS011;37554;50.362;7.568;2023-05-20T05:33:59;1.27;;;0.98;;
51475;SDS011;37554;50.362;7.568;2023-05-20T05:36:25;1.30;;;1.08;;
51475;SDS011;37554;50.362;7.568;2023-05-20T05:38:50;1.27;;;1.08;;
51475;SDS011;37554;50.362;7.568;2023-05-20T05:41:16;1.20;;;1.00;;
51475;SDS011;37554;50.362;7.568;2023-05-20T05:43:42;2.15;;;1.08;;
51475;SDS011;37554;50.362;7.568;2023-05-20T05:46:07;1.08;;;0.98;;
51475;SDS011;37554;50.362;7.568;2023-05-20T05:48:34;2.30;;;0.93;;
51475;SDS011;37554;50.362;7.568;2023-05-20T05:51:00;1.55;;;1.25;;
51475;SDS011;37554;50.362;7.568;2023-05-20T05:53:26;1.50;;;1.13;;
51475;SDS011;37554;50.362;7.568;2023-05-20T05:55:51;1.05;;;0.80;;
51475;SDS011;37554;50.362;7.568;2023-05-20T05:58:17;2.55;;;1.20;;
51475;SDS011;37554;50.362;7.568;2023-05-20T06:00:43;0.95;;;0.93;;
51475;SDS011;37554;50.362;7.568;2023-05-20T06:03:08;1.45;;;1.10;;
51475;SDS011;37554;50.362;7.568;2023-05-20T06:05:34;1.50;;;1.10;;
51475;SDS011;37554;50.362;7.568;2023-05-20T06:08:00;2.00;;;1.30;;
51475;SDS011;37554;50.362;7.568;2023-05-20T06:10:26;2.55;;;1.45;;
51475;SDS011;37554;50.362;7.568;2023-05-20T06:12:51;1.38;;;0.90;;
51475;SDS011;37554;50.362;7.568;2023-05-20T06:15:17;1.38;;;1.27;;
51475;SDS011;37554;50.362;7.568;2023-05-20T06:17:42;1.67;;;1.33;;
51475;SDS011;37554;50.362;7.568;2023-05-20T06:20:08;2.53;;;1.58;;
51475;SDS011;37554;50.362;7.568;2023-05-20T06:22:34;3.08;;;1.70;;
51475;SDS011;37554;50.362;7.568;2023-05-20T06:25:00;3.20;;;1.73;;
51475;SDS011;37554;50.362;7.568;2023-05-20T06:27:26;3.05;;;1.65;;
51475;SDS011;37554;50.362;7.568;2023-05-20T06:29:52;3.05;;;1.60;;
51475;SDS011;37554;50.362;7.568;2023-05-20T06:32:17;4.35;;;1.60;;
51475;SDS011;37554;50.362;7.568;2023-05-20T06:34:43;2.97;;;1.58;;
51475;SDS011;37554;50.362;7.568;2023-05-20T06:37:09;2.45;;;1.70;;
51475;SDS011;37554;50.362;7.568;2023-05-20T06:39:35;4.15;;;1.90;;
51475;SDS011;37554;50.362;7.568;2023-05-20T06:42:01;2.03;;;1.77;;
51475;SDS011;37554;50.362;7.568;2023-05-20T06:44:27;4.75;;;1.60;;
51475;SDS011;37554;50.362;7.568;2023-05-20T06:46:53;2.00;;;1.30;;
51475;SDS011;37554;50.362;7.568;2023-05-20T06:49:19;2.10;;;1.55;;
51475;SDS011;37554;50.362;7.568;2023-05-20T06:51:44;1.70;;;1.33;;
51475;SDS011;37554;50.362;7.568;2023-05-20T06:54:10;3.00;;;1.60;;
51475;SDS011;37554;50.362;7.568;2023-05-20T06:56:36;2.17;;;1.55;;
51475;SDS011;37554;50.362;7.568;2023-05-20T06:59:01;2.25;;;1.30;;
51475;SDS011;37554;50.362;7.568;2023-05-20T07:01:27;1.42;;;1.30;;
51475;SDS011;37554;50.362;7.568;2023-05-20T07:03:53;1.65;;;1.40;;
51475;SDS011;37554;50.362;7.568;2023-05-20T07:06:18;1.90;;;1.30;;
51475;SDS011;37554;50.362;7.568;2023-05-20T07:08:44;1.73;;;1.38;;
51475;SDS011;37554;50.362;7.568;2023-05-20T07:11:10;1.85;;;1.30;;
51475;SDS011;37554;50.362;7.568;2023-05-20T07:13:36;2.50;;;1.38;;
51475;SDS011;37554;50.362;7.568;2023-05-20T07:16:02;2.50;;;1.35;;
51475;SDS011;37554;50.362;7.568;2023-05-20T07:18:28;1.80;;;1.30;;
51475;SDS011;37554;50.362;7.568;2023-05-20T07:20:56;1.80;;;1.40;;
51475;SDS011;37554;50.362;7.568;2023-05-20T07:23:22;2.70;;;1.70;;
51475;SDS011;37554;50.362;7.568;2023-05-20T07:25:48;3.40;;;1.88;;
51475;SDS011;37554;50.362;7.568;2023-05-20T07:28:17;2.15;;;1.83;;
51475;SDS011;37554;50.362;7.568;2023-05-20T07:30:45;2.50;;;1.52;;
51475;SDS011;37554;50.362;7.568;2023-05-20T07:33:14;6.22;;;2.20;;
51475;SDS011;37554;50.362;7.568;2023-05-20T07:35:41;2.45;;;2.15;;
51475;SDS011;37554;50.362;7.568;2023-05-20T07:38:07;2.00;;;1.80;;
51475;SDS011;37554;50.362;7.568;2023-05-20T07:40:33;3.42;;;2.13;;
51475;SDS011;37554;50.362;7.568;2023-05-20T07:43:00;1.90;;;1.45;;
51475;SDS011;37554;50.362;7.568;2023-05-20T07:45:26;3.75;;;2.10;;
51475;SDS011;37554;50.362;7.568;2023-05-20T07:47:52;2.15;;;2.00;;
51475;SDS011;37554;50.362;7.568;2023-05-20T07:50:17;4.90;;;2.00;;
51475;SDS011;37554;50.362;7.568;2023-05-20T07:52:43;3.83;;;1.90;;
51475;SDS011;37554;50.362;7.568;2023-05-20T07:55:08;3.42;;;1.95;;
51475;SDS011;37554;50.362;7.568;2023-05-20T07:57:34;3.28;;;1.77;;
51475;SDS011;37554;50.362;7.568;2023-05-20T08:00:00;2.50;;;1.80;;
51475;SDS011;37554;50.362;7.568;2023-05-20T08:02:25;2.97;;;1.95;;
51475;SDS011;37554;50.362;7.568;2023-05-20T08:04:51;3.05;;;1.75;;
51475;SDS011;37554;50.362;7.568;2023-05-20T08:07:17;2.10;;;1.52;;
51475;SDS011;37554;50.362;7.568;2023-05-20T08:09:42;1.65;;;1.55;;
51475;SDS011;37554;50.362;7.568;2023-05-20T08:12:08;2.05;;;1.90;;
51475;SDS011;37554;50.362;7.568;2023-05-20T08:14:33;2.75;;;1.95;;
51475;SDS011;37554;50.362;7.568;2023-05-20T08:16:59;4.32;;;1.90;;
51475;SDS011;37554;50.362;7.568;2023-05-20T08:19:25;2.50;;;2.08;;
51475;SDS011;37554;50.362;7.568;2023-05-20T08:21:50;4.80;;;2.30;;
51475;SDS011;37554;50.362;7.568;2023-05-20T08:24:16;2.30;;;2.10;;
51475;SDS011;37554;50.362;7.568;2023-05-20T08:26:41;6.05;;;2.10;;
51475;SDS011;37554;50.362;7.568;2023-05-20T08:29:07;2.92;;;2.25;;
51475;SDS011;37554;50.362;7.568;2023-05-20T08:31:33;2.33;;;2.10;;
51475;SDS011;37554;50.362;7.568;2023-05-20T08:33:59;3.90;;;2.10;;
51475;SDS011;37554;50.362;7.568;2023-05-20T08:36:24;3.50;;;1.88;;
51475;SDS011;37554;50.362;7.568;2023-05-20T08:38:50;2.53;;;2.15;;
51475;SDS011;37554;50.362;7.568;2023-05-20T08:41:16;2.70;;;2.17;;
51475;SDS011;37554;50.362;7.568;2023-05-20T08:43:41;4.18;;;2.50;;
51475;SDS011;37554;50.362;7.568;2023-05-20T08:46:08;2.40;;;2.05;;
51475;SDS011;37554;50.362;7.568;2023-05-20T08:48:35;2.70;;;2.13;;
51475;SDS011;37554;50.362;7.568;2023-05-20T08:51:01;2.83;;;2.20;;
51475;SDS011;37554;50.362;7.568;2023-05-20T08:53:28;2.65;;;2.05;;
51475;SDS011;37554;50.362;7.568;2023-05-20T08:55:55;2.95;;;1.90;;
51475;SDS011;37554;50.362;7.568;2023-05-20T08:58:24;2.83;;;2.53;;
51475;SDS011;37554;50.362;7.568;2023-05-20T09:00:50;3.85;;;2.55;;
51475;SDS011;37554;50.362;7.568;2023-05-20T09:03:17;5.00;;;2.28;;
51475;SDS011;37554;50.362;7.568;2023-05-20T09:05:44;3.03;;;2.28;;
51475;SDS011;37554;50.362;7.568;2023-05-20T09:08:10;3.47;;;2.42;;
51475;SDS011;37554;50.362;7.568;2023-05-20T09:10:39;4.05;;;2.50;;
51475;SDS011;37554;50.362;7.568;2023-05-20T09:13:06;3.03;;;2.72;;
51475;SDS011;37554;50.362;7.568;2023-05-20T09:15:33;3.13;;;2.78;;
51475;SDS011;37554;50.362;7.568;2023-05-20T09:18:00;3.25;;;2.50;;
51475;SDS011;37554;50.362;7.568;2023-05-20T09:20:34;4.38;;;2.78;;
51475;SDS011;37554;50.362;7.568;2023-05-20T09:23:02;2.53;;;2.33;;
51475;SDS011;37554;50.362;7.568;2023-05-20T09:25:30;3.78;;;2.75;;
51475;SDS011;37554;50.362;7.568;2023-05-20T09:27:56;4.70;;;3.03;;
51475;SDS011;37554;50.362;7.568;2023-05-20T09:30:21;3.20;;;2.90;;
51475;SDS011;37554;50.362;7.568;2023-05-20T09:35:21;3.00;;;2.70;;
51475;SDS011;37554;50.362;7.568;2023-05-20T09:37:47;4.88;;;2.50;;
51475;SDS011;37554;50.362;7.568;2023-05-20T09:40:20;2.83;;;2.63;;
51475;SDS011;37554;50.362;7.568;2023-05-20T09:42:56;3.80;;;2.60;;
51475;SDS011;37554;50.362;7.568;2023-05-20T09:47:51;2.40;;;2.20;;
51475;SDS011;37554;50.362;7.568;2023-05-20T09:50:19;3.13;;;2.90;;
51475;SDS011;37554;50.362;7.568;2023-05-20T09:52:46;2.70;;;2.50;;
51475;SDS011;37554;50.362;7.568;2023-05-20T09:55:16;3.30;;;2.80;;
51475;SDS011;37554;50.362;7.568;2023-05-20T09:57:43;3.65;;;2.67;;
51475;SDS011;37554;50.362;7.568;2023-05-20T10:00:10;4.43;;;3.22;;
51475;SDS011;37554;50.362;7.568;2023-05-20T10:02:50;2.70;;;2.50;;
51475;SDS011;37554;50.362;7.568;2023-05-20T10:05:23;2.80;;;2.60;;
51475;SDS011;37554;50.362;7.568;2023-05-20T10:11:04;3.00;;;2.47;;
51475;SDS011;37554;50.362;7.568;2023-05-20T10:18:57;3.75;;;2.95;;
51475;SDS011;37554;50.362;7.568;2023-05-20T10:21:23;3.05;;;2.75;;
51475;SDS011;37554;50.362;7.568;2023-05-20T10:23:52;2.85;;;2.47;;
51475;SDS011;37554;50.362;7.568;2023-05-20T10:26:18;9.02;;;2.70;;
51475;SDS011;37554;50.362;7.568;2023-05-20T10:28:45;2.53;;;2.33;;
51475;SDS011;37554;50.362;7.568;2023-05-20T10:31:15;4.43;;;3.00;;
51475;SDS011;37554;50.362;7.568;2023-05-20T10:33:44;2.90;;;2.60;;
51475;SDS011;37554;50.362;7.568;2023-05-20T10:36:24;3.50;;;3.20;;
51475;SDS011;37554;50.362;7.568;2023-05-20T10:38:54;4.57;;;2.97;;
51475;SDS011;37554;50.362;7.568;2023-05-20T10:41:22;3.28;;;2.97;;
51475;SDS011;37554;50.362;7.568;2023-05-20T10:43:58;5.07;;;2.40;;
51475;SDS011;37554;50.362;7.568;2023-05-20T10:46:25;3.53;;;3.20;;
51475;SDS011;37554;50.362;7.568;2023-05-20T10:48:50;2.85;;;2.63;;
51475;SDS011;37554;50.362;7.568;2023-05-20T10:51:16;4.10;;;2.85;;
51475;SDS011;37554;50.362;7.568;2023-05-20T10:53:44;4.25;;;3.00;;
51475;SDS011;37554;50.362;7.568;2023-05-20T10:56:17;3.80;;;3.45;;
51475;SDS011;37554;50.362;7.568;2023-05-20T10:58:43;4.13;;;3.53;;
51475;SDS011;37554;50.362;7.568;2023-05-20T11:01:09;3.13;;;2.78;;
51475;SDS011;37554;50.362;7.568;2023-05-20T11:03:35;4.63;;;3.20;;
51475;SDS011;37554;50.362;7.568;2023-05-20T11:06:12;2.95;;;2.75;;
51475;SDS011;37554;50.362;7.568;2023-05-20T11:08:38;3.13;;;2.92;;
51475;SDS011;37554;50.362;7.568;2023-05-20T11:11:04;4.30;;;2.78;;
51475;SDS011;37554;50.362;7.568;2023-05-20T11:13:30;3.60;;;3.38;;
51475;SDS011;37554;50.362;7.568;2023-05-20T11:15:56;4.05;;;3.22;;
51475;SDS011;37554;50.362;7.568;2023-05-20T11:18:23;3.05;;;2.47;;
51475;SDS011;37554;50.362;7.568;2023-05-20T11:20:54;3.00;;;2.70;;
51475;SDS011;37554;50.362;7.568;2023-05-20T11:23:20;3.72;;;2.67;;
51475;SDS011;37554;50.362;7.568;2023-05-20T11:25:48;4.20;;;3.15;;
51475;SDS011;37554;50.362;7.568;2023-05-20T11:28:18;4.00;;;3.30;;
51475;SDS011;37554;50.362;7.568;2023-05-20T11:30:47;3.67;;;3.17;;
51475;SDS011;37554;50.362;7.568;2023-05-20T11:33:16;3.65;;;3.35;;
51475;SDS011;37554;50.362;7.568;2023-05-20T11:35:46;3.15;;;2.92;;
51475;SDS011;37554;50.362;7.568;2023-05-20T11:38:13;3.10;;;2.90;;
51475;SDS011;37554;50.362;7.568;2023-05-20T11:40:46;3.30;;;3.00;;
51475;SDS011;37554;50.362;7.568;2023-05-20T11:43:19;4.30;;;3.63;;
51475;SDS011;37554;50.362;7.568;2023-05-20T11:45:55;3.55;;;3.25;;
51475;SDS011;37554;50.362;7.568;2023-05-20T11:48:25;3.10;;;2.90;;
51475;SDS011;37554;50.362;7.568;2023-05-20T11:50:52;3.47;;;3.17;;
51475;SDS011;37554;50.362;7.568;2023-05-20T11:53:19;3.92;;;3.55;;
51475;SDS011;37554;50.362;7.568;2023-05-20T11:55:50;3.75;;;3.40;;
51475;SDS011;37554;50.362;7.568;2023-05-20T11:58:19;4.85;;;3.50;;
51475;SDS011;37554;50.362;7.568;2023-05-20T12:00:50;3.78;;;3.47;;
51475;SDS011;37554;50.362;7.568;2023-05-20T12:03:16;4.35;;;3.95;;
51475;SDS011;37554;50.362;7.568;2023-05-20T12:05:42;4.60;;;3.63;;
51475;SDS011;37554;50.362;7.568;2023-05-20T12:08:07;4.03;;;3.63;;
51475;SDS011;37554;50.362;7.568;2023-05-20T12:10:33;4.60;;;3.63;;
51475;SDS011;37554;50.362;7.568;2023-05-20T12:12:59;4.90;;;4.10;;
51475;SDS011;37554;50.362;7.568;2023-05-20T12:15:25;3.85;;;3.55;;
51475;SDS011;37554;50.362;7.568;2023-05-20T12:17:51;3.58;;;3.38;;
51475;SDS011;37554;50.362;7.568;2023-05-20T12:20:20;3.80;;;3.50;;
51475;SDS011;37554;50.362;7.568;2023-05-20T12:22:47;6.50;;;3.25;;
51475;SDS011;37554;50.362;7.568;2023-05-20T12:25:13;4.20;;;3.72;;
51475;SDS011;37554;50.362;7.568;2023-05-20T12:27:40;5.53;;;3.80;;
51475;SDS011;37554;50.362;7.568;2023-05-20T12:30:07;3.90;;;3.60;;
51475;SDS011;37554;50.362;7.568;2023-05-20T12:32:34;3.05;;;2.78;;
51475;SDS011;37554;50.362;7.568;2023-05-20T12:35:02;4.50;;;3.33;;
51475;SDS011;37554;50.362;7.568;2023-05-20T12:37:28;4.55;;;3.80;;
51475;SDS011;37554;50.362;7.568;2023-05-20T12:39:54;3.17;;;2.97;;
51475;SDS011;37554;50.362;7.568;2023-05-20T12:42:20;5.60;;;4.30;;
51475;SDS011;37554;50.362;7.568;2023-05-20T12:44:46;4.38;;;3.97;;
51475;SDS011;37554;50.362;7.568;2023-05-20T12:47:11;4.90;;;3.45;;
51475;SDS011;37554;50.362;7.568;2023-05-20T12:49:37;3.92;;;3.15;;
51475;SDS011;37554;50.362;7.568;2023-05-20T12:52:03;5.10;;;3.33;;
51475;SDS011;37554;50.362;7.568;2023-05-20T12:54:28;4.20;;;3.20;;
51475;SDS011;37554;50.362;7.568;2023-05-20T12:56:54;4.47;;;3.53;;
51475;SDS011;37554;50.362;7.568;2023-05-20T12:59:20;4.82;;;3.75;;
51475;SDS011;37554;50.362;7.568;2023-05-20T13:01:45;3.17;;;2.97;;
51475;SDS011;37554;50.362;7.568;2023-05-20T13:04:11;3.63;;;3.33;;
51475;SDS011;37554;50.362;7.568;2023-05-20T13:06:37;4.15;;;3.30;;
51475;SDS011;37554;50.362;7.568;2023-05-20T13:09:03;3.35;;;3.15;;
51475;SDS011;37554;50.362;7.568;2023-05-20T13:11:28;3.42;;;3.13;;
51475;SDS011;37554;50.362;7.568;2023-05-20T13:13:54;4.78;;;3.30;;
51475;SDS011;37554;50.362;7.568;2023-05-20T13:16:23;4.13;;;3.80;;
51475;SDS011;37554;50.362;7.568;2023-05-20T13:18:49;5.32;;;3.70;;
51475;SDS011;37554;50.362;7.568;2023-05-20T13:21:15;3.65;;;3.33;;
51475;SDS011;37554;50.362;7.568;2023-05-20T13:23:41;5.70;;;3.58;;
51475;SDS011;37554;50.362;7.568;2023-05-20T13:26:07;4.05;;;3.75;;
51475;SDS011;37554;50.362;7.568;2023-05-20T13:28:33;4.55;;;4.15;;
51475;SDS011;37554;50.362;7.568;2023-05-20T13:31:01;3.90;;;3.60;;
51475;SDS011;37554;50.362;7.568;2023-05-20T13:33:26;5.40;;;3.20;;
51475;SDS011;37554;50.362;7.568;2023-05-20T13:35:52;3.72;;;3.42;;
51475;SDS011;37554;50.362;7.568;2023-05-20T13:38:18;5.03;;;3.95;;
51475;SDS011;37554;50.362;7.568;2023-05-20T13:40:44;4.40;;;3.95;;
51475;SDS011;37554;50.362;7.568;2023-05-20T13:43:09;3.92;;;3.63;;
51475;SDS011;37554;50.362;7.568;2023-05-20T13:45:35;4.28;;;3.88;;
51475;SDS011;37554;50.362;7.568;2023-05-20T13:48:00;4.85;;;3.55;;
51475;SDS011;37554;50.362;7.568;2023-05-20T13:50:26;3.92;;;3.53;;
51475;SDS011;37554;50.362;7.568;2023-05-20T13:52:51;4.03;;;3.50;;
51475;SDS011;37554;50.362;7.568;2023-05-20T13:55:17;3.45;;;3.25;;
51475;SDS011;37554;50.362;7.568;2023-05-20T13:57:43;3.70;;;3.33;;
51475;SDS011;37554;50.362;7.568;2023-05-20T14:00:08;3.78;;;3.47;;
51475;SDS011;37554;50.362;7.568;2023-05-20T14:02:34;4.50;;;3.60;;
51475;SDS011;37554;50.362;7.568;2023-05-20T14:05:00;3.20;;;3.00;;
51475;SDS011;37554;50.362;7.568;2023-05-20T14:07:26;4.07;;;3.65;;
51475;SDS011;37554;50.362;7.568;2023-05-20T14:09:52;3.95;;;3.55;;
51475;SDS011;37554;50.362;7.568;2023-05-20T14:12:17;3.30;;;3.00;;
51475;SDS011;37554;50.362;7.568;2023-05-20T14:14:43;3.90;;;3.60;;
51475;SDS011;37554;50.362;7.568;2023-05-20T14:17:09;12.00;;;3.97;;
51475;SDS011;37554;50.362;7.568;2023-05-20T14:19:35;6.43;;;3.50;;
51475;SDS011;37554;50.362;7.568;2023-05-20T14:22:01;3.88;;;3.58;;
51475;SDS011;37554;50.362;7.568;2023-05-20T14:24:27;3.38;;;3.13;;
51475;SDS011;37554;50.362;7.568;2023-05-20T14:26:53;4.38;;;3.25;;
51475;SDS011;37554;50.362;7.568;2023-05-20T14:29:18;4.93;;;4.05;;
51475;SDS011;37554;50.362;7.568;2023-05-20T14:31:44;3.72;;;3.42;;
51475;SDS011;37554;50.362;7.568;2023-05-20T14:34:10;3.75;;;3.45;;
51475;SDS011;37554;50.362;7.568;2023-05-20T14:36:37;4.22;;;3.40;;
51475;SDS011;37554;50.362;7.568;2023-05-20T14:39:03;4.40;;;4.00;;
51475;SDS011;37554;50.362;7.568;2023-05-20T14:41:29;3.65;;;3.38;;
51475;SDS011;37554;50.362;7.568;2023-05-20T14:43:54;4.50;;;4.10;;
51475;SDS011;37554;50.362;7.568;2023-05-20T14:46:20;4.38;;;3.97;;
51475;SDS011;37554;50.362;7.568;2023-05-20T14:48:46;3.95;;;3.65;;
51475;SDS011;37554;50.362;7.568;2023-05-20T14:51:11;3.85;;;3.55;;
51475;SDS011;37554;50.362;7.568;2023-05-20T14:53:37;4.43;;;4.03;;
51475;SDS011;37554;50.362;7.568;2023-05-20T14:56:03;3.83;;;3.50;;
51475;SDS011;37554;50.362;7.568;2023-05-20T14:58:29;5.78;;;4.00;;